createdAt,value
2019-03-03T00:00:04.541Z,10.04
2019-03-03T00:01:04.731Z,9.99
2019-03-03T00:02:04.932Z,9.96
2019-03-03T00:03:05.119Z,9.93
2019-03-03T00:04:05.299Z,9.93
2019-03-03T00:05:05.497Z,10.01
2019-03-03T00:06:05.674Z,9.89
2019-03-03T00:07:05.862Z,9.94
2019-03-03T00:08:06.042Z,10.02
2019-03-03T00:09:06.238Z,9.93
2019-03-03T00:10:06.416Z,10.02
2019-03-03T00:11:06.604Z,9.93
2019-03-03T00:12:06.819Z,9.94
2019-03-03T00:13:06.967Z,9.89
2019-03-03T00:14:07.166Z,9.97
2019-03-03T00:15:07.376Z,10.01
2019-03-03T00:16:07.553Z,9.90
2019-03-03T00:17:07.753Z,10.04
2019-03-03T00:18:07.940Z,9.94
2019-03-03T00:19:08.128Z,9.97
2019-03-03T00:20:08.315Z,10.04
2019-03-03T00:21:08.495Z,10.04
2019-03-03T00:22:08.681Z,10.08
2019-03-03T00:23:08.877Z,10.04
2019-03-03T00:24:09.073Z,10.11
2019-03-03T00:25:09.260Z,9.99
2019-03-03T00:26:09.433Z,10.12
2019-03-03T00:27:09.617Z,10.11
2019-03-03T00:28:09.794Z,9.99
2019-03-03T00:29:09.994Z,10.04
2019-03-03T00:30:10.192Z,10.04
2019-03-03T00:31:10.354Z,10.11
2019-03-03T00:32:10.545Z,10.14
2019-03-03T00:33:10.718Z,10.05
2019-03-03T00:34:10.912Z,10.08
2019-03-03T00:35:11.099Z,10.05
2019-03-03T00:36:11.293Z,9.96
2019-03-03T00:37:11.475Z,10.08
2019-03-03T00:38:11.658Z,10.09
2019-03-03T00:39:11.834Z,10.01
2019-03-03T00:40:12.025Z,10.05
2019-03-03T00:41:12.226Z,10.12
2019-03-03T00:42:12.409Z,10.04
2019-03-03T00:43:12.602Z,10.04
2019-03-03T00:44:12.785Z,10.04
2019-03-03T00:45:12.979Z,10.05
2019-03-03T00:46:13.164Z,10.02
2019-03-03T00:47:13.357Z,10.02
2019-03-03T00:48:13.543Z,9.99
2019-03-03T00:49:13.718Z,10.11
2019-03-03T00:50:13.914Z,10.12
2019-03-03T00:51:14.108Z,10.08
2019-03-03T00:52:14.315Z,10.09
2019-03-03T00:53:14.465Z,10.15
2019-03-03T00:54:14.650Z,10.07
2019-03-03T00:55:14.840Z,10.08
2019-03-03T00:56:15.026Z,10.14
2019-03-03T00:57:15.218Z,10.05
2019-03-03T00:58:15.401Z,10.05
2019-03-03T00:59:15.584Z,10.11
2019-03-03T01:00:15.776Z,10.07
2019-03-03T01:01:15.957Z,10.07
2019-03-03T01:02:16.145Z,10.02
2019-03-03T01:03:16.330Z,10.08
2019-03-03T01:04:16.511Z,10.08
2019-03-03T01:05:16.701Z,10.08
2019-03-03T01:06:16.896Z,10.05
2019-03-03T01:07:17.083Z,10.05
2019-03-03T01:08:17.274Z,10.05
2019-03-03T01:09:17.450Z,10.04
2019-03-03T01:10:17.635Z,10.04
2019-03-03T01:11:17.819Z,9.97
2019-03-03T01:12:18.008Z,10.02
2019-03-03T01:13:18.192Z,9.97
2019-03-03T01:14:18.376Z,9.91
2019-03-03T01:15:18.555Z,9.94
2019-03-03T01:16:18.745Z,9.97
2019-03-03T01:17:18.935Z,9.91
2019-03-03T01:18:19.119Z,9.97
2019-03-03T01:19:19.305Z,9.97
2019-03-03T01:20:19.508Z,10.05
2019-03-03T01:21:19.697Z,10.08
2019-03-03T01:22:19.887Z,10.08
2019-03-03T01:23:20.075Z,9.97
2019-03-03T01:24:20.259Z,10.05
2019-03-03T01:25:20.444Z,10.11
2019-03-03T01:26:20.629Z,10.12
2019-03-03T01:27:20.811Z,10.08
2019-03-03T01:28:20.999Z,10.11
2019-03-03T01:29:21.185Z,10.07
2019-03-03T01:30:21.367Z,10.08
2019-03-03T01:31:21.551Z,10.08
2019-03-03T01:32:21.746Z,10.08
2019-03-03T01:33:21.928Z,10.09
2019-03-03T01:34:22.119Z,9.97
2019-03-03T01:35:22.311Z,10.08
2019-03-03T01:36:22.504Z,10.09
2019-03-03T01:37:22.686Z,10.01
2019-03-03T01:38:22.874Z,10.01
2019-03-03T01:39:23.059Z,9.97
2019-03-03T01:40:23.246Z,9.97
2019-03-03T01:41:23.441Z,9.94
2019-03-03T01:42:23.627Z,9.97
2019-03-03T01:43:23.830Z,9.84
2019-03-03T01:44:24.021Z,9.91
2019-03-03T01:45:24.198Z,9.99
2019-03-03T01:46:24.394Z,9.91
2019-03-03T01:47:24.566Z,9.86
2019-03-03T01:48:24.759Z,9.86
2019-03-03T01:49:24.944Z,9.87
2019-03-03T01:50:25.132Z,9.81
2019-03-03T01:51:25.321Z,9.83
2019-03-03T01:52:25.513Z,9.74
2019-03-03T01:53:25.695Z,9.76
2019-03-03T01:54:25.875Z,9.86
2019-03-03T01:55:26.061Z,9.84
2019-03-03T01:56:26.238Z,9.78
2019-03-03T01:57:26.425Z,9.76
2019-03-03T01:58:26.618Z,9.83
2019-03-03T01:59:26.806Z,9.90
2019-03-03T02:00:26.982Z,9.83
2019-03-03T02:01:27.172Z,9.84
2019-03-03T02:02:27.367Z,9.84
2019-03-03T02:03:27.554Z,9.84
2019-03-03T02:04:27.736Z,9.79
2019-03-03T02:05:27.922Z,9.84
2019-03-03T02:06:28.106Z,9.84
2019-03-03T02:07:28.301Z,9.83
2019-03-03T02:08:28.486Z,9.78
2019-03-03T02:09:28.673Z,9.87
2019-03-03T02:10:28.857Z,9.86
2019-03-03T02:11:29.042Z,9.83
2019-03-03T02:12:29.224Z,9.87
2019-03-03T02:13:29.417Z,9.89
2019-03-03T02:14:29.584Z,9.84
2019-03-03T02:15:29.784Z,9.87
2019-03-03T02:16:29.956Z,9.79
2019-03-03T02:17:30.162Z,9.75
2019-03-03T02:18:30.361Z,9.79
2019-03-03T02:19:30.531Z,9.84
2019-03-03T02:20:30.712Z,9.81
2019-03-03T02:21:30.910Z,9.78
2019-03-03T02:22:31.119Z,9.76
2019-03-03T02:23:31.283Z,9.78
2019-03-03T02:24:31.471Z,9.89
2019-03-03T02:25:31.654Z,9.76
2019-03-03T02:26:31.842Z,9.90
2019-03-03T02:27:32.022Z,9.76
2019-03-03T02:28:32.206Z,9.76
2019-03-03T02:29:32.393Z,9.75
2019-03-03T02:30:32.570Z,9.81
2019-03-03T02:31:32.755Z,9.76
2019-03-03T02:32:32.945Z,9.74
2019-03-03T02:33:33.133Z,9.84
2019-03-03T02:34:33.316Z,9.81
2019-03-03T02:35:33.510Z,9.83
2019-03-03T02:36:33.689Z,9.76
2019-03-03T02:37:33.894Z,9.84
2019-03-03T02:38:34.065Z,9.79
2019-03-03T02:39:34.249Z,9.76
2019-03-03T02:40:34.436Z,9.83
2019-03-03T02:41:34.609Z,9.76
2019-03-03T02:42:34.792Z,9.78
2019-03-03T02:43:34.982Z,9.76
2019-03-03T02:44:35.166Z,9.83
2019-03-03T02:45:35.346Z,9.66
2019-03-03T02:46:35.530Z,9.69
2019-03-03T02:47:35.717Z,9.65
2019-03-03T02:48:35.902Z,9.61
2019-03-03T02:49:36.091Z,9.78
2019-03-03T02:50:36.282Z,9.66
2019-03-03T02:51:36.474Z,9.66
2019-03-03T02:52:36.654Z,9.75
2019-03-03T02:53:36.837Z,9.61
2019-03-03T02:54:37.021Z,9.78
2019-03-03T02:55:37.235Z,9.61
2019-03-03T02:56:37.414Z,9.74
2019-03-03T02:57:37.605Z,9.68
2019-03-03T02:58:37.791Z,9.68
2019-03-03T02:59:37.972Z,9.61
2019-03-03T03:00:38.163Z,9.69
2019-03-03T03:01:38.346Z,9.68
2019-03-03T03:02:38.552Z,9.71
2019-03-03T03:03:38.716Z,9.64
2019-03-03T03:04:38.906Z,9.60
2019-03-03T03:05:39.085Z,9.66
2019-03-03T03:06:39.271Z,9.61
2019-03-03T03:07:39.456Z,9.60
2019-03-03T03:08:39.646Z,9.64
2019-03-03T03:09:39.862Z,9.68
2019-03-03T03:10:40.027Z,9.69
2019-03-03T03:11:40.210Z,9.56
2019-03-03T03:12:40.403Z,9.64
2019-03-03T03:13:40.596Z,9.64
2019-03-03T03:14:40.796Z,9.68
2019-03-03T03:15:40.959Z,9.72
2019-03-03T03:16:41.151Z,9.69
2019-03-03T03:17:41.335Z,9.65
2019-03-03T03:18:41.521Z,9.60
2019-03-03T03:19:41.708Z,9.69
2019-03-03T03:20:41.901Z,9.64
2019-03-03T03:21:42.071Z,9.66
2019-03-03T03:22:42.260Z,9.64
2019-03-03T03:23:42.445Z,9.61
2019-03-03T03:24:42.628Z,9.60
2019-03-03T03:25:42.819Z,9.69
2019-03-03T03:26:42.992Z,9.64
2019-03-03T03:27:43.192Z,9.69
2019-03-03T03:28:43.366Z,9.66
2019-03-03T03:29:43.548Z,9.76
2019-03-03T03:30:43.741Z,9.72
2019-03-03T03:31:43.924Z,9.72
2019-03-03T03:32:44.136Z,9.68
2019-03-03T03:33:44.300Z,9.71
2019-03-03T03:34:44.477Z,9.64
2019-03-03T03:35:44.665Z,9.71
2019-03-03T03:36:44.862Z,9.72
2019-03-03T03:37:45.041Z,9.78
2019-03-03T03:38:45.226Z,9.66
2019-03-03T03:39:45.415Z,9.65
2019-03-03T03:40:45.606Z,9.79
2019-03-03T03:41:45.785Z,9.65
2019-03-03T03:42:45.962Z,9.79
2019-03-03T03:43:46.146Z,9.71
2019-03-03T03:44:46.335Z,9.71
2019-03-03T03:45:46.525Z,9.65
2019-03-03T03:46:46.704Z,9.69
2019-03-03T03:47:46.893Z,9.66
2019-03-03T03:48:47.076Z,9.71
2019-03-03T03:49:47.260Z,9.64
2019-03-03T03:50:47.446Z,9.68
2019-03-03T03:51:47.646Z,9.71
2019-03-03T03:52:47.815Z,9.72
2019-03-03T03:53:47.999Z,9.74
2019-03-03T03:54:48.185Z,9.74
2019-03-03T03:55:48.365Z,9.71
2019-03-03T03:56:48.550Z,9.61
2019-03-03T03:57:48.738Z,9.71
2019-03-03T03:58:48.922Z,9.69
2019-03-03T03:59:49.114Z,9.71
2019-03-03T04:00:49.300Z,9.69
2019-03-03T04:01:49.465Z,9.56
2019-03-03T04:02:49.680Z,9.60
2019-03-03T04:03:49.872Z,9.68
2019-03-03T04:04:50.054Z,9.54
2019-03-03T04:05:50.238Z,9.61
2019-03-03T04:06:50.430Z,9.66
2019-03-03T04:07:50.621Z,9.64
2019-03-03T04:08:50.804Z,9.69
2019-03-03T04:09:50.981Z,9.68
2019-03-03T04:10:51.160Z,9.68
2019-03-03T04:11:51.350Z,9.65
2019-03-03T04:12:51.534Z,9.60
2019-03-03T04:13:51.713Z,9.66
2019-03-03T04:14:51.896Z,9.60
2019-03-03T04:15:52.082Z,9.61
2019-03-03T04:16:52.272Z,9.65
2019-03-03T04:17:52.467Z,9.66
2019-03-03T04:18:52.649Z,9.60
2019-03-03T04:19:52.830Z,9.69
2019-03-03T04:20:53.017Z,9.68
2019-03-03T04:21:53.213Z,9.66
2019-03-03T04:22:53.388Z,9.60
2019-03-03T04:23:53.576Z,9.69
2019-03-03T04:24:53.755Z,9.61
2019-03-03T04:25:53.947Z,9.65
2019-03-03T04:26:54.134Z,9.66
2019-03-03T04:27:54.315Z,9.57
2019-03-03T04:28:54.510Z,9.57
2019-03-03T04:29:54.692Z,9.51
2019-03-03T04:30:54.882Z,9.50
2019-03-03T04:31:55.062Z,9.42
2019-03-03T04:32:55.262Z,9.42
2019-03-03T04:33:55.451Z,9.46
2019-03-03T04:34:55.642Z,9.51
2019-03-03T04:35:55.824Z,9.51
2019-03-03T04:36:56.005Z,9.46
2019-03-03T04:37:56.215Z,9.46
2019-03-03T04:38:56.395Z,9.48
2019-03-03T04:39:56.582Z,9.40
2019-03-03T04:40:56.763Z,9.38
2019-03-03T04:41:56.952Z,9.46
2019-03-03T04:42:57.136Z,9.32
2019-03-03T04:43:57.318Z,9.35
2019-03-03T04:44:57.505Z,9.39
2019-03-03T04:45:57.700Z,9.39
2019-03-03T04:46:57.881Z,9.40
2019-03-03T04:47:58.068Z,9.43
2019-03-03T04:48:58.251Z,9.50
2019-03-03T04:49:58.434Z,9.51
2019-03-03T04:50:58.614Z,9.42
2019-03-03T04:51:58.812Z,9.47
2019-03-03T04:52:58.993Z,9.36
2019-03-03T04:53:59.174Z,9.53
2019-03-03T04:54:59.357Z,9.43
2019-03-03T04:55:59.559Z,9.46
2019-03-03T04:56:59.740Z,9.51
2019-03-03T04:57:59.922Z,9.56
2019-03-03T04:59:00.162Z,9.53
2019-03-03T05:00:00.319Z,9.46
2019-03-03T05:01:00.487Z,9.57
2019-03-03T05:02:00.677Z,9.56
2019-03-03T05:03:00.870Z,9.60
2019-03-03T05:04:01.043Z,9.61
2019-03-03T05:05:01.237Z,9.58
2019-03-03T05:06:01.428Z,9.64
2019-03-03T05:07:01.611Z,9.64
2019-03-03T05:08:01.794Z,9.68
2019-03-03T05:09:01.980Z,9.66
2019-03-03T05:10:02.169Z,9.64
2019-03-03T05:11:02.356Z,9.61
2019-03-03T05:12:02.539Z,9.61
2019-03-03T05:13:02.727Z,9.58
2019-03-03T05:14:02.904Z,9.56
2019-03-03T05:15:03.103Z,9.64
2019-03-03T05:16:03.290Z,9.64
2019-03-03T05:17:03.456Z,9.64
2019-03-03T05:18:03.666Z,9.57
2019-03-03T05:19:03.853Z,9.58
2019-03-03T05:20:04.043Z,9.69
2019-03-03T05:21:04.224Z,9.57
2019-03-03T05:22:04.411Z,9.61
2019-03-03T05:23:04.589Z,9.60
2019-03-03T05:24:04.797Z,9.61
2019-03-03T05:25:04.993Z,9.61
2019-03-03T05:26:05.146Z,9.65
2019-03-03T05:27:05.328Z,9.64
2019-03-03T05:28:05.524Z,9.69
2019-03-03T05:29:05.743Z,9.64
2019-03-03T05:30:05.891Z,9.61
2019-03-03T05:31:06.079Z,9.69
2019-03-03T05:32:06.280Z,9.66
2019-03-03T05:33:06.438Z,9.64
2019-03-03T05:34:06.632Z,9.69
2019-03-03T05:35:06.825Z,9.69
2019-03-03T05:36:07.004Z,9.72
2019-03-03T05:37:07.177Z,9.60
2019-03-03T05:38:07.357Z,9.61
2019-03-03T05:39:07.548Z,9.60
2019-03-03T05:40:07.744Z,9.54
2019-03-03T05:41:07.925Z,9.65
2019-03-03T05:42:08.114Z,9.61
2019-03-03T05:43:08.305Z,9.65
2019-03-03T05:44:08.486Z,9.57
2019-03-03T05:45:08.669Z,9.64
2019-03-03T05:46:08.858Z,9.66
2019-03-03T05:47:09.048Z,9.65
2019-03-03T05:48:09.234Z,9.58
2019-03-03T05:49:09.391Z,9.64
2019-03-03T05:50:09.593Z,9.68
2019-03-03T05:51:09.802Z,9.65
2019-03-03T05:52:09.974Z,9.61
2019-03-03T05:53:10.163Z,9.66
2019-03-03T05:54:10.352Z,9.57
2019-03-03T05:55:10.540Z,9.66
2019-03-03T05:56:10.718Z,9.64
2019-03-03T05:57:10.911Z,9.69
2019-03-03T05:58:11.094Z,9.61
2019-03-03T05:59:11.284Z,9.66
2019-03-03T06:00:11.462Z,9.69
2019-03-03T06:01:11.655Z,9.66
2019-03-03T06:02:11.845Z,9.57
2019-03-03T06:03:12.023Z,9.72
2019-03-03T06:04:12.220Z,9.58
2019-03-03T06:05:12.404Z,9.60
2019-03-03T06:06:12.586Z,9.64
2019-03-03T06:07:12.773Z,9.56
2019-03-03T06:08:12.959Z,9.64
2019-03-03T06:09:13.144Z,9.57
2019-03-03T06:10:13.332Z,9.58
2019-03-03T06:11:13.531Z,9.66
2019-03-03T06:12:13.710Z,9.64
2019-03-03T06:13:13.887Z,9.69
2019-03-03T06:14:14.073Z,9.60
2019-03-03T06:15:14.255Z,9.60
2019-03-03T06:16:14.447Z,9.64
2019-03-03T06:17:14.620Z,9.72
2019-03-03T06:18:14.806Z,9.65
2019-03-03T06:19:14.990Z,9.66
2019-03-03T06:20:15.181Z,9.74
2019-03-03T06:21:15.349Z,9.68
2019-03-03T06:22:15.541Z,9.75
2019-03-03T06:23:15.726Z,9.66
2019-03-03T06:24:15.911Z,9.68
2019-03-03T06:25:16.102Z,9.74
2019-03-03T06:26:16.286Z,9.75
2019-03-03T06:27:16.471Z,9.84
2019-03-03T06:28:16.656Z,9.83
2019-03-03T06:29:16.846Z,9.74
2019-03-03T06:30:17.030Z,9.83
2019-03-03T06:31:17.216Z,9.89
2019-03-03T06:32:17.403Z,9.78
2019-03-03T06:33:17.586Z,9.81
2019-03-03T06:34:17.773Z,9.79
2019-03-03T06:35:17.963Z,9.84
2019-03-03T06:36:18.150Z,9.76
2019-03-03T06:37:18.334Z,9.91
2019-03-03T06:38:18.517Z,9.84
2019-03-03T06:39:18.708Z,9.90
2019-03-03T06:40:18.887Z,9.91
2019-03-03T06:41:19.072Z,9.79
2019-03-03T06:42:19.262Z,9.91
2019-03-03T06:43:19.451Z,9.83
2019-03-03T06:44:19.635Z,9.87
2019-03-03T06:45:19.821Z,9.96
2019-03-03T06:46:20.025Z,9.96
2019-03-03T06:47:20.193Z,10.01
2019-03-03T06:48:20.373Z,10.02
2019-03-03T06:49:20.610Z,9.91
2019-03-03T06:50:20.753Z,10.11
2019-03-03T06:51:20.951Z,10.08
2019-03-03T06:52:21.126Z,10.08
2019-03-03T06:53:21.305Z,10.09
2019-03-03T06:54:21.486Z,10.08
2019-03-03T06:55:21.676Z,10.07
2019-03-03T06:56:21.858Z,10.08
2019-03-03T06:57:22.043Z,10.14
2019-03-03T06:58:22.244Z,10.09
2019-03-03T06:59:22.425Z,10.22
2019-03-03T07:00:22.616Z,10.18
2019-03-03T07:01:22.819Z,10.08
2019-03-03T07:02:22.997Z,10.04
2019-03-03T07:03:23.183Z,10.09
2019-03-03T07:04:23.369Z,10.17
2019-03-03T07:05:23.563Z,10.08
2019-03-03T07:06:23.745Z,10.08
2019-03-03T07:07:23.935Z,10.07
2019-03-03T07:08:24.117Z,10.01
2019-03-03T07:09:24.307Z,10.09
2019-03-03T07:10:24.499Z,10.07
2019-03-03T07:11:24.686Z,10.12
2019-03-03T07:12:24.884Z,10.05
2019-03-03T07:13:25.089Z,10.18
2019-03-03T07:14:25.254Z,10.07
2019-03-03T07:15:25.438Z,10.09
2019-03-03T07:16:26.398Z,10.04
2019-03-03T07:17:25.816Z,10.09
2019-03-03T07:18:26.005Z,10.12
2019-03-03T07:19:26.202Z,10.17
2019-03-03T07:20:26.384Z,10.17
2019-03-03T07:21:26.566Z,10.23
2019-03-03T07:22:26.758Z,10.17
2019-03-03T07:23:26.941Z,10.23
2019-03-03T07:24:27.146Z,10.18
2019-03-03T07:25:27.305Z,10.15
2019-03-03T07:26:27.497Z,10.15
2019-03-03T07:27:27.674Z,10.20
2019-03-03T07:28:27.871Z,10.23
2019-03-03T07:29:28.053Z,10.18
2019-03-03T07:30:28.245Z,10.20
2019-03-03T07:31:28.425Z,10.12
2019-03-03T07:32:28.609Z,10.15
2019-03-03T07:33:28.800Z,10.20
2019-03-03T07:34:28.989Z,10.11
2019-03-03T07:35:29.176Z,10.09
2019-03-03T07:36:29.367Z,10.14
2019-03-03T07:37:29.564Z,10.20
2019-03-03T07:38:29.737Z,10.18
2019-03-03T07:39:29.930Z,10.22
2019-03-03T07:40:30.106Z,10.26
2019-03-03T07:41:30.306Z,10.23
2019-03-03T07:42:30.494Z,10.25
2019-03-03T07:43:30.674Z,10.32
2019-03-03T07:44:30.860Z,10.30
2019-03-03T07:45:31.052Z,10.30
2019-03-03T07:46:31.232Z,10.29
2019-03-03T07:47:31.422Z,10.36
2019-03-03T07:48:31.606Z,10.38
2019-03-03T07:49:31.793Z,10.40
2019-03-03T07:50:31.983Z,10.33
2019-03-03T07:51:32.168Z,10.34
2019-03-03T07:52:33.043Z,10.36
2019-03-03T07:53:32.542Z,10.36
2019-03-03T07:54:32.729Z,10.34
2019-03-03T07:55:32.912Z,10.34
2019-03-03T07:56:33.102Z,10.32
2019-03-03T07:57:33.289Z,10.44
2019-03-03T07:58:33.479Z,10.47
2019-03-03T07:59:33.663Z,10.38
2019-03-03T08:00:33.863Z,10.36
2019-03-03T08:01:34.045Z,10.38
2019-03-03T08:02:34.229Z,10.38
2019-03-03T08:03:34.422Z,10.38
2019-03-03T08:04:34.605Z,10.44
2019-03-03T08:05:34.789Z,10.38
2019-03-03T08:06:34.980Z,10.47
2019-03-03T08:07:35.166Z,10.45
2019-03-03T08:08:35.345Z,10.38
2019-03-03T08:09:35.537Z,10.51
2019-03-03T08:10:35.721Z,10.41
2019-03-03T08:11:35.903Z,10.44
2019-03-03T08:12:36.089Z,10.40
2019-03-03T08:13:36.277Z,10.40
2019-03-03T08:14:36.464Z,10.44
2019-03-03T08:15:36.644Z,10.40
2019-03-03T08:16:36.836Z,10.40
2019-03-03T08:17:37.040Z,10.42
2019-03-03T08:18:37.230Z,10.40
2019-03-03T08:19:37.413Z,10.41
2019-03-03T08:20:37.600Z,10.42
2019-03-03T08:21:37.787Z,10.40
2019-03-03T08:22:37.977Z,10.41
2019-03-03T08:23:38.163Z,10.41
2019-03-03T08:24:38.344Z,10.47
2019-03-03T08:25:38.532Z,10.38
2019-03-03T08:26:38.721Z,10.44
2019-03-03T08:27:38.904Z,10.44
2019-03-03T08:28:39.094Z,10.45
2019-03-03T08:29:39.279Z,10.47
2019-03-03T08:30:39.474Z,10.44
2019-03-03T08:31:39.658Z,10.51
2019-03-03T08:32:39.839Z,10.44
2019-03-03T08:33:40.029Z,10.56
2019-03-03T08:34:40.212Z,10.55
2019-03-03T08:35:40.397Z,10.60
2019-03-03T08:36:40.581Z,10.61
2019-03-03T08:37:40.768Z,10.52
2019-03-03T08:38:40.974Z,10.53
2019-03-03T08:39:41.147Z,10.55
2019-03-03T08:40:41.348Z,10.53
2019-03-03T08:41:41.513Z,10.53
2019-03-03T08:42:41.768Z,10.66
2019-03-03T08:43:41.897Z,10.63
2019-03-03T08:44:42.082Z,10.63
2019-03-03T08:45:42.269Z,10.61
2019-03-03T08:46:42.453Z,10.67
2019-03-03T08:47:42.638Z,10.63
2019-03-03T08:48:42.822Z,10.61
2019-03-03T08:49:43.009Z,10.60
2019-03-03T08:50:43.202Z,10.60
2019-03-03T08:51:43.384Z,10.67
2019-03-03T08:52:43.579Z,10.71
2019-03-03T08:53:43.760Z,10.73
2019-03-03T08:54:43.957Z,10.71
2019-03-03T08:55:44.141Z,10.67
2019-03-03T08:56:44.332Z,10.70
2019-03-03T08:57:44.515Z,10.60
2019-03-03T08:58:44.695Z,10.67
2019-03-03T08:59:44.888Z,10.67
2019-03-03T09:00:45.069Z,10.66
2019-03-03T09:01:45.271Z,10.67
2019-03-03T09:02:45.457Z,10.56
2019-03-03T09:03:45.642Z,10.66
2019-03-03T09:04:45.841Z,10.66
2019-03-03T09:05:46.026Z,10.63
2019-03-03T09:06:46.213Z,10.51
2019-03-03T09:07:46.409Z,10.55
2019-03-03T09:08:46.596Z,10.48
2019-03-03T09:09:46.775Z,10.63
2019-03-03T09:10:46.969Z,10.55
2019-03-03T09:11:47.145Z,10.55
2019-03-03T09:12:47.336Z,10.59
2019-03-03T09:13:47.525Z,10.51
2019-03-03T09:14:47.708Z,10.55
2019-03-03T09:15:47.920Z,10.42
2019-03-03T09:16:48.419Z,10.45
2019-03-03T09:17:48.295Z,10.44
2019-03-03T09:18:48.482Z,10.51
2019-03-03T09:19:48.666Z,10.52
2019-03-03T09:20:48.871Z,10.53
2019-03-03T09:21:49.047Z,10.55
2019-03-03T09:22:49.237Z,10.61
2019-03-03T09:23:49.428Z,10.52
2019-03-03T09:24:49.614Z,10.47
2019-03-03T09:25:49.800Z,10.52
2019-03-03T09:26:49.993Z,10.53
2019-03-03T09:27:50.182Z,10.52
2019-03-03T09:28:50.373Z,10.51
2019-03-03T09:29:50.560Z,10.59
2019-03-03T09:30:50.747Z,10.52
2019-03-03T09:31:50.945Z,10.55
2019-03-03T09:32:51.126Z,10.56
2019-03-03T09:33:51.322Z,10.67
2019-03-03T09:34:51.507Z,10.60
2019-03-03T09:35:51.696Z,10.74
2019-03-03T09:36:51.902Z,10.66
2019-03-03T09:37:52.085Z,10.66
2019-03-03T09:38:52.276Z,10.68
2019-03-03T09:39:52.469Z,10.64
2019-03-03T09:40:52.681Z,10.63
2019-03-03T09:41:52.864Z,10.70
2019-03-03T09:42:53.067Z,10.64
2019-03-03T09:43:53.243Z,10.74
2019-03-03T09:44:53.425Z,10.64
2019-03-03T09:45:53.618Z,10.71
2019-03-03T09:46:53.805Z,10.73
2019-03-03T09:47:53.989Z,10.68
2019-03-03T09:48:54.185Z,10.79
2019-03-03T09:49:54.375Z,10.74
2019-03-03T09:50:54.548Z,10.68
2019-03-03T09:51:54.727Z,10.67
2019-03-03T09:52:54.917Z,10.71
2019-03-03T09:53:55.110Z,10.64
2019-03-03T09:54:55.318Z,10.74
2019-03-03T09:55:55.507Z,10.84
2019-03-03T09:56:55.683Z,10.89
2019-03-03T09:57:55.864Z,10.85
2019-03-03T09:58:56.050Z,10.91
2019-03-03T09:59:56.248Z,10.89
2019-03-03T10:00:56.430Z,10.96
2019-03-03T10:01:56.616Z,10.91
2019-03-03T10:02:56.803Z,10.89
2019-03-03T10:03:57.001Z,10.85
2019-03-03T10:04:57.182Z,10.96
2019-03-03T10:05:57.367Z,10.94
2019-03-03T10:06:57.558Z,11.02
2019-03-03T10:07:57.747Z,11.03
2019-03-03T10:08:57.944Z,11.14
2019-03-03T10:09:58.134Z,11.14
2019-03-03T10:10:58.320Z,11.09
2019-03-03T10:11:58.503Z,11.15
2019-03-03T10:12:58.698Z,11.07
2019-03-03T10:13:58.887Z,11.03
2019-03-03T10:14:59.072Z,11.04
2019-03-03T10:15:59.256Z,11.10
2019-03-03T10:16:59.458Z,11.10
2019-03-03T10:17:59.639Z,11.04
2019-03-03T10:19:06.976Z,11.04
2019-03-03T10:20:00.019Z,11.07
2019-03-03T10:21:00.202Z,11.09
2019-03-03T10:22:00.388Z,11.22
2019-03-03T10:23:00.573Z,11.19
2019-03-03T10:24:00.772Z,11.24
2019-03-03T10:25:00.959Z,11.28
2019-03-03T10:26:01.145Z,11.27
2019-03-03T10:27:01.353Z,11.28
2019-03-03T10:28:01.556Z,11.24
2019-03-03T10:29:01.762Z,11.27
2019-03-03T10:30:01.955Z,11.28
2019-03-03T10:31:02.148Z,11.21
2019-03-03T10:32:02.333Z,11.33
2019-03-03T10:33:02.534Z,11.33
2019-03-03T10:34:02.714Z,11.39
2019-03-03T10:35:02.901Z,11.39
2019-03-03T10:36:03.091Z,11.40
2019-03-03T10:37:03.274Z,11.32
2019-03-03T10:38:03.465Z,11.42
2019-03-03T10:39:03.654Z,11.46
2019-03-03T10:40:03.839Z,11.42
2019-03-03T10:41:04.026Z,11.40
2019-03-03T10:42:04.237Z,11.42
2019-03-03T10:43:04.415Z,11.40
2019-03-03T10:44:04.636Z,11.52
2019-03-03T10:45:04.822Z,11.55
2019-03-03T10:46:05.008Z,11.69
2019-03-03T10:47:05.192Z,11.52
2019-03-03T10:48:05.382Z,11.62
2019-03-03T10:49:05.575Z,11.58
2019-03-03T10:50:05.763Z,11.52
2019-03-03T10:51:05.949Z,11.67
2019-03-03T10:52:06.139Z,11.73
2019-03-03T10:53:06.323Z,11.64
2019-03-03T10:54:06.519Z,11.52
2019-03-03T10:55:06.714Z,11.52
2019-03-03T10:56:06.908Z,11.49
2019-03-03T10:57:07.096Z,11.46
2019-03-03T10:58:07.284Z,11.35
2019-03-03T10:59:07.472Z,11.43
2019-03-03T11:00:07.659Z,11.54
2019-03-03T11:01:07.850Z,11.52
2019-03-03T11:02:08.034Z,11.52
2019-03-03T11:03:08.221Z,11.47
2019-03-03T11:04:08.410Z,11.52
2019-03-03T11:05:08.589Z,11.52
2019-03-03T11:06:08.774Z,11.46
2019-03-03T11:07:08.966Z,11.52
2019-03-03T11:08:10.169Z,11.47
2019-03-03T11:09:09.340Z,11.52
2019-03-03T11:10:09.526Z,11.37
2019-03-03T11:11:09.714Z,11.42
2019-03-03T11:12:09.907Z,11.40
2019-03-03T11:13:10.097Z,11.39
2019-03-03T11:14:10.288Z,11.36
2019-03-03T11:15:18.187Z,11.43
2019-03-03T11:16:10.677Z,11.39
2019-03-03T11:17:10.856Z,11.39
2019-03-03T11:18:11.061Z,11.52
2019-03-03T11:19:11.257Z,11.49
2019-03-03T11:20:12.867Z,11.37
2019-03-03T11:21:12.343Z,11.47
2019-03-03T11:22:12.854Z,11.35
2019-03-03T11:23:12.843Z,11.43
2019-03-03T11:24:12.838Z,11.40
2019-03-03T11:25:13.388Z,11.29
2019-03-03T11:26:13.340Z,11.33
2019-03-03T11:27:14.838Z,11.28
2019-03-03T11:28:23.368Z,11.25
2019-03-03T11:29:14.342Z,11.25
2019-03-03T11:30:13.571Z,11.25
2019-03-03T11:31:14.350Z,11.24
2019-03-03T11:32:14.845Z,11.24
2019-03-03T11:33:14.243Z,11.33
2019-03-03T11:34:15.679Z,11.25
2019-03-03T11:35:14.686Z,11.28
2019-03-03T11:36:14.959Z,11.32
2019-03-03T11:37:16.012Z,11.35
2019-03-03T11:38:15.889Z,11.35
2019-03-03T11:39:18.778Z,11.33
2019-03-03T11:40:16.356Z,11.25
2019-03-03T11:41:15.843Z,11.42
2019-03-03T11:42:19.791Z,11.33
2019-03-03T11:43:17.344Z,11.35
2019-03-03T11:44:16.310Z,11.29
2019-03-03T11:45:17.407Z,11.28
2019-03-03T11:46:16.752Z,11.25
2019-03-03T11:47:16.963Z,11.29
2019-03-03T11:48:17.192Z,11.27
2019-03-03T11:49:18.350Z,11.32
2019-03-03T11:50:18.362Z,11.33
2019-03-03T11:51:18.367Z,11.24
2019-03-03T11:52:18.871Z,11.32
2019-03-03T11:53:19.354Z,11.28
2019-03-03T11:54:18.392Z,11.37
2019-03-03T11:55:19.378Z,11.33
2019-03-03T11:56:19.356Z,11.32
2019-03-03T11:57:21.677Z,11.27
2019-03-03T11:58:19.190Z,11.32
2019-03-03T11:59:20.347Z,11.32
2019-03-03T12:00:20.359Z,11.25
2019-03-03T12:01:20.352Z,11.19
2019-03-03T12:02:20.857Z,11.29
2019-03-03T12:03:21.863Z,11.39
2019-03-03T12:04:21.360Z,11.33
2019-03-03T12:05:21.361Z,11.28
2019-03-03T12:06:20.861Z,11.27
2019-03-03T12:07:21.115Z,11.35
2019-03-03T12:08:22.852Z,11.33
2019-03-03T12:09:22.351Z,11.32
2019-03-03T12:10:22.348Z,11.43
2019-03-03T12:11:22.043Z,11.39
2019-03-03T12:12:22.278Z,11.36
2019-03-03T12:13:22.463Z,11.35
2019-03-03T12:14:23.362Z,11.37
2019-03-03T12:15:23.356Z,11.47
2019-03-03T12:16:23.850Z,11.44
2019-03-03T12:17:23.256Z,11.42
2019-03-03T12:18:24.791Z,11.36
2019-03-03T12:19:24.434Z,11.47
2019-03-03T12:20:25.350Z,11.54
2019-03-03T12:21:24.852Z,11.52
2019-03-03T12:22:24.861Z,11.52
2019-03-03T12:23:24.457Z,11.49
2019-03-03T12:24:25.379Z,11.58
2019-03-03T12:25:24.879Z,11.47
2019-03-03T12:26:25.852Z,11.49
2019-03-03T12:27:25.860Z,11.51
2019-03-03T12:28:26.856Z,11.52
2019-03-03T12:29:26.360Z,11.52
2019-03-03T12:30:25.966Z,11.54
2019-03-03T12:31:26.185Z,11.47
2019-03-03T12:32:26.371Z,11.49
2019-03-03T12:33:26.588Z,11.54
2019-03-03T12:34:26.817Z,11.54
2019-03-03T12:35:27.029Z,11.54
2019-03-03T12:36:27.859Z,11.46
2019-03-03T12:37:28.363Z,11.43
2019-03-03T12:38:28.388Z,11.51
2019-03-03T12:39:27.979Z,11.51
2019-03-03T12:40:28.197Z,11.52
2019-03-03T12:41:29.358Z,11.60
2019-03-03T12:42:29.362Z,11.47
2019-03-03T12:43:30.370Z,11.44
2019-03-03T12:44:30.359Z,11.52
2019-03-03T12:45:29.215Z,11.58
2019-03-03T12:46:29.862Z,11.60
2019-03-03T12:47:30.361Z,11.57
2019-03-03T12:48:30.358Z,11.65
2019-03-03T12:49:30.865Z,11.54
2019-03-03T12:50:30.858Z,11.52
2019-03-03T12:51:30.295Z,11.64
2019-03-03T12:52:30.929Z,11.61
2019-03-03T12:53:31.360Z,11.52
2019-03-03T12:54:31.430Z,11.61
2019-03-03T12:55:31.866Z,11.54
2019-03-03T12:56:31.197Z,11.61
2019-03-03T12:57:32.364Z,11.58
2019-03-03T12:58:32.373Z,11.61
2019-03-03T12:59:32.377Z,11.73
2019-03-03T13:00:32.860Z,11.64
2019-03-03T13:01:33.362Z,11.67
2019-03-03T13:02:33.059Z,11.75
2019-03-03T13:03:33.870Z,11.69
2019-03-03T13:04:33.367Z,11.83
2019-03-03T13:05:33.870Z,11.80